Main page
METAR-TAF:

METAR-TAF

Airports :

Vlissingen, Netherlands

latitude: 51-27N, longitude: 3-36E, elevation: 10 m

Current weather observation

The report was made 32 minutes ago, at 13:55 UTC
Wind 12 kt from the South
Temperature 12°C
Humidity 82%
Pressure 1025 hPa
Visibility 10 km or more

METAR: EHFS 141355Z AUTO 18012KT 9999 NSC 12/09 Q1025 W///H///

Time: 15:27 (14:27 UTC)


TAF: missing

Weather observations and forecasts of more than 4000 airports (METAR and TAF reports).

The available stations are represented by yellow and red dots on the map.

Hover mouse over dot to see the name of the station.

Then click to see weather observations and forecasts.

To change the map : click on the green buttons with a black cross to zoom in, on the green button with a dash to zoom out, or on the green arrows for adjacent maps.


METAR-TAF: